sensor_id;sensor_type;location;lat;lon;timestamp;pressure;altitude;pressure_sealevel;temperature
70831;BMP180;58451;51.550;7.208;2023-04-01T00:00:59;98574.40;;;9.40
70831;BMP180;58451;51.550;7.208;2023-04-01T00:02:31;98577.40;;;9.40
70831;BMP180;58451;51.550;7.208;2023-04-01T00:04:04;98575.40;;;9.40
70831;BMP180;58451;51.550;7.208;2023-04-01T00:05:36;98570.20;;;9.40
70831;BMP180;58451;51.550;7.208;2023-04-01T00:07:08;98573.80;;;9.32
70831;BMP180;58451;51.550;7.208;2023-04-01T00:08:40;98574.00;;;9.30
70831;BMP180;58451;51.550;7.208;2023-04-01T00:10:15;98572.40;;;9.30
70831;BMP180;58451;51.550;7.208;2023-04-01T00:11:46;98573.60;;;9.30
70831;BMP180;58451;51.550;7.208;2023-04-01T00:13:19;98573.20;;;9.30
70831;BMP180;58451;51.550;7.208;2023-04-01T00:14:51;98570.60;;;9.30
70831;BMP180;58451;51.550;7.208;2023-04-01T00:16:23;98572.40;;;9.30
70831;BMP180;58451;51.550;7.208;2023-04-01T00:17:55;98578.00;;;9.30
70831;BMP180;58451;51.550;7.208;2023-04-01T00:19:27;98575.40;;;9.30
70831;BMP180;58451;51.550;7.208;2023-04-01T00:20:59;98572.00;;;9.30
70831;BMP180;58451;51.550;7.208;2023-04-01T00:22:31;98574.60;;;9.20
70831;BMP180;58451;51.550;7.208;2023-04-01T00:24:03;98574.80;;;9.20
70831;BMP180;58451;51.550;7.208;2023-04-01T00:25:35;98573.80;;;9.20
70831;BMP180;58451;51.550;7.208;2023-04-01T00:27:06;98578.00;;;9.20
70831;BMP180;58451;51.550;7.208;2023-04-01T00:28:40;98571.40;;;9.20
70831;BMP180;58451;51.550;7.208;2023-04-01T00:30:12;98571.00;;;9.20
70831;BMP180;58451;51.550;7.208;2023-04-01T00:31:44;98566.80;;;9.16
70831;BMP180;58451;51.550;7.208;2023-04-01T00:33:16;98563.40;;;9.18
70831;BMP180;58451;51.550;7.208;2023-04-01T00:34:52;98566.20;;;9.20
70831;BMP180;58451;51.550;7.208;2023-04-01T00:36:24;98565.40;;;9.20
70831;BMP180;58451;51.550;7.208;2023-04-01T00:37:56;98565.60;;;9.20
70831;BMP180;58451;51.550;7.208;2023-04-01T00:39:30;98567.20;;;9.20
70831;BMP180;58451;51.550;7.208;2023-04-01T00:41:02;98565.20;;;9.20
70831;BMP180;58451;51.550;7.208;2023-04-01T00:42:33;98561.20;;;9.20
70831;BMP180;58451;51.550;7.208;2023-04-01T00:44:26;98566.60;;;9.20
70831;BMP180;58451;51.550;7.208;2023-04-01T00:45:58;98571.00;;;9.20
70831;BMP180;58451;51.550;7.208;2023-04-01T00:47:31;98562.40;;;9.18
70831;BMP180;58451;51.550;7.208;2023-04-01T00:49:02;98565.80;;;9.12
70831;BMP180;58451;51.550;7.208;2023-04-01T00:50:36;98567.20;;;9.12
70831;BMP180;58451;51.550;7.208;2023-04-01T00:52:13;98565.00;;;9.10
70831;BMP180;58451;51.550;7.208;2023-04-01T00:53:51;98561.00;;;9.10
70831;BMP180;58451;51.550;7.208;2023-04-01T00:55:27;98563.20;;;9.10
70831;BMP180;58451;51.550;7.208;2023-04-01T00:57:13;98566.20;;;9.10
70831;BMP180;58451;51.550;7.208;2023-04-01T00:58:51;98565.60;;;9.10
70831;BMP180;58451;51.550;7.208;2023-04-01T01:00:23;98564.20;;;9.10
70831;BMP180;58451;51.550;7.208;2023-04-01T01:01:55;98565.40;;;9.10
70831;BMP180;58451;51.550;7.208;2023-04-01T01:06:19;98562.80;;;9.04
70831;BMP180;58451;51.550;7.208;2023-04-01T01:08:15;98555.80;;;9.00
70831;BMP180;58451;51.550;7.208;2023-04-01T01:11:54;98556.40;;;9.00
70831;BMP180;58451;51.550;7.208;2023-04-01T01:14:46;98557.40;;;9.00
70831;BMP180;58451;51.550;7.208;2023-04-01T01:16:02;98553.60;;;9.00
70831;BMP180;58451;51.550;7.208;2023-04-01T01:21:40;98556.20;;;9.00
70831;BMP180;58451;51.550;7.208;2023-04-01T01:25:21;98551.60;;;9.00
70831;BMP180;58451;51.550;7.208;2023-04-01T01:27:02;98553.60;;;9.00
70831;BMP180;58451;51.550;7.208;2023-04-01T01:29:45;98548.60;;;9.00
70831;BMP180;58451;51.550;7.208;2023-04-01T01:31:33;98549.40;;;9.00
70831;BMP180;58451;51.550;7.208;2023-04-01T01:35:37;98549.00;;;9.00
70831;BMP180;58451;51.550;7.208;2023-04-01T01:37:16;98548.80;;;9.00
70831;BMP180;58451;51.550;7.208;2023-04-01T01:38:51;98551.40;;;9.00
70831;BMP180;58451;51.550;7.208;2023-04-01T01:40:26;98558.60;;;9.00
70831;BMP180;58451;51.550;7.208;2023-04-01T01:42:04;98552.80;;;9.00
70831;BMP180;58451;51.550;7.208;2023-04-01T01:43:45;98546.80;;;9.00
70831;BMP180;58451;51.550;7.208;2023-04-01T01:45:23;98551.80;;;9.00
70831;BMP180;58451;51.550;7.208;2023-04-01T01:46:58;98555.60;;;8.98
70831;BMP180;58451;51.550;7.208;2023-04-01T01:48:31;98548.40;;;9.00
70831;BMP180;58451;51.550;7.208;2023-04-01T01:50:05;98551.00;;;9.00
70831;BMP180;58451;51.550;7.208;2023-04-01T01:51:37;98547.60;;;9.00
70831;BMP180;58451;51.550;7.208;2023-04-01T01:53:13;98550.00;;;9.00
70831;BMP180;58451;51.550;7.208;2023-04-01T01:54:54;98546.20;;;8.98
70831;BMP180;58451;51.550;7.208;2023-04-01T01:56:29;98541.00;;;8.96
70831;BMP180;58451;51.550;7.208;2023-04-01T01:58:31;98546.40;;;8.92
70831;BMP180;58451;51.550;7.208;2023-04-01T02:00:10;98544.80;;;8.96
70831;BMP180;58451;51.550;7.208;2023-04-01T02:01:51;98541.00;;;8.90
70831;BMP180;58451;51.550;7.208;2023-04-01T02:03:29;98541.00;;;8.90
70831;BMP180;58451;51.550;7.208;2023-04-01T02:05:05;98545.00;;;8.90
70831;BMP180;58451;51.550;7.208;2023-04-01T02:06:43;98542.00;;;8.90
70831;BMP180;58451;51.550;7.208;2023-04-01T02:08:28;98542.60;;;8.90
70831;BMP180;58451;51.550;7.208;2023-04-01T02:10:03;98537.80;;;8.92
70831;BMP180;58451;51.550;7.208;2023-04-01T02:13:25;98535.00;;;8.90
70831;BMP180;58451;51.550;7.208;2023-04-01T02:15:07;98533.00;;;8.90
70831;BMP180;58451;51.550;7.208;2023-04-01T02:16:55;98534.00;;;8.90
70831;BMP180;58451;51.550;7.208;2023-04-01T02:18:30;98531.20;;;8.90
70831;BMP180;58451;51.550;7.208;2023-04-01T02:20:20;98531.60;;;8.90
70831;BMP180;58451;51.550;7.208;2023-04-01T02:22:00;98533.00;;;8.90
70831;BMP180;58451;51.550;7.208;2023-04-01T02:23:37;98534.00;;;8.90
70831;BMP180;58451;51.550;7.208;2023-04-01T02:25:15;98536.80;;;8.94
70831;BMP180;58451;51.550;7.208;2023-04-01T02:26:50;98529.00;;;9.00
70831;BMP180;58451;51.550;7.208;2023-04-01T02:28:24;98540.40;;;9.00
70831;BMP180;58451;51.550;7.208;2023-04-01T02:29:57;98538.40;;;8.98
70831;BMP180;58451;51.550;7.208;2023-04-01T02:31:30;98536.40;;;8.92
70831;BMP180;58451;51.550;7.208;2023-04-01T02:33:04;98538.20;;;8.96
70831;BMP180;58451;51.550;7.208;2023-04-01T02:34:37;98539.60;;;8.96
70831;BMP180;58451;51.550;7.208;2023-04-01T02:36:14;98541.20;;;8.90
70831;BMP180;58451;51.550;7.208;2023-04-01T02:37:50;98539.20;;;8.90
70831;BMP180;58451;51.550;7.208;2023-04-01T02:39:23;98540.20;;;8.90
70831;BMP180;58451;51.550;7.208;2023-04-01T02:41:00;98540.20;;;8.90
70831;BMP180;58451;51.550;7.208;2023-04-01T02:42:33;98545.20;;;8.90
70831;BMP180;58451;51.550;7.208;2023-04-01T02:44:05;98543.40;;;8.90
70831;BMP180;58451;51.550;7.208;2023-04-01T02:45:37;98541.40;;;8.90
70831;BMP180;58451;51.550;7.208;2023-04-01T02:47:09;98541.40;;;8.90
70831;BMP180;58451;51.550;7.208;2023-04-01T02:48:41;98542.40;;;8.90
70831;BMP180;58451;51.550;7.208;2023-04-01T02:50:13;98543.20;;;8.90
70831;BMP180;58451;51.550;7.208;2023-04-01T02:51:45;98544.40;;;8.90
70831;BMP180;58451;51.550;7.208;2023-04-01T02:53:17;98549.00;;;8.90
70831;BMP180;58451;51.550;7.208;2023-04-01T02:54:48;98544.00;;;8.90
70831;BMP180;58451;51.550;7.208;2023-04-01T02:56:20;98543.20;;;8.90
70831;BMP180;58451;51.550;7.208;2023-04-01T02:57:52;98551.60;;;8.90
70831;BMP180;58451;51.550;7.208;2023-04-01T02:59:24;98547.80;;;8.90
70831;BMP180;58451;51.550;7.208;2023-04-01T03:00:56;98551.40;;;8.90
70831;BMP180;58451;51.550;7.208;2023-04-01T03:02:28;98550.00;;;8.90
70831;BMP180;58451;51.550;7.208;2023-04-01T03:04:00;98551.00;;;8.90
70831;BMP180;58451;51.550;7.208;2023-04-01T03:05:32;98556.20;;;8.90
70831;BMP180;58451;51.550;7.208;2023-04-01T03:07:04;98556.40;;;8.86
70831;BMP180;58451;51.550;7.208;2023-04-01T03:08:36;98559.80;;;8.80
70831;BMP180;58451;51.550;7.208;2023-04-01T03:10:08;98561.40;;;8.80
70831;BMP180;58451;51.550;7.208;2023-04-01T03:11:40;98562.80;;;8.82
70831;BMP180;58451;51.550;7.208;2023-04-01T03:13:12;98564.20;;;8.80
70831;BMP180;58451;51.550;7.208;2023-04-01T03:14:44;98559.00;;;8.80
70831;BMP180;58451;51.550;7.208;2023-04-01T03:16:16;98563.20;;;8.80
70831;BMP180;58451;51.550;7.208;2023-04-01T03:17:48;98561.80;;;8.80
70831;BMP180;58451;51.550;7.208;2023-04-01T03:19:20;98565.00;;;8.80
70831;BMP180;58451;51.550;7.208;2023-04-01T03:20:52;98562.60;;;8.80
70831;BMP180;58451;51.550;7.208;2023-04-01T03:22:23;98562.20;;;8.80
70831;BMP180;58451;51.550;7.208;2023-04-01T03:23:55;98564.80;;;8.80
70831;BMP180;58451;51.550;7.208;2023-04-01T03:25:27;98562.00;;;8.80
70831;BMP180;58451;51.550;7.208;2023-04-01T03:27:00;98559.40;;;8.80
70831;BMP180;58451;51.550;7.208;2023-04-01T03:28:32;98567.20;;;8.80
70831;BMP180;58451;51.550;7.208;2023-04-01T03:30:05;98566.60;;;8.80
70831;BMP180;58451;51.550;7.208;2023-04-01T03:31:38;98567.80;;;8.80
70831;BMP180;58451;51.550;7.208;2023-04-01T03:33:10;98570.60;;;8.80
70831;BMP180;58451;51.550;7.208;2023-04-01T03:34:42;98567.40;;;8.80
70831;BMP180;58451;51.550;7.208;2023-04-01T03:36:14;98578.00;;;8.80
70831;BMP180;58451;51.550;7.208;2023-04-01T03:37:46;98571.60;;;8.80
70831;BMP180;58451;51.550;7.208;2023-04-01T03:39:18;98571.60;;;8.80
70831;BMP180;58451;51.550;7.208;2023-04-01T03:40:51;98570.40;;;8.80
70831;BMP180;58451;51.550;7.208;2023-04-01T03:42:23;98573.40;;;8.80
70831;BMP180;58451;51.550;7.208;2023-04-01T03:43:55;98576.40;;;8.80
70831;BMP180;58451;51.550;7.208;2023-04-01T03:45:26;98571.40;;;8.80
70831;BMP180;58451;51.550;7.208;2023-04-01T03:46:59;98575.60;;;8.80
70831;BMP180;58451;51.550;7.208;2023-04-01T03:48:32;98576.40;;;8.74
70831;BMP180;58451;51.550;7.208;2023-04-01T03:50:06;98571.00;;;8.76
70831;BMP180;58451;51.550;7.208;2023-04-01T03:51:42;98571.60;;;8.78
70831;BMP180;58451;51.550;7.208;2023-04-01T03:53:15;98572.20;;;8.80
70831;BMP180;58451;51.550;7.208;2023-04-01T03:54:47;98576.40;;;8.70
70831;BMP180;58451;51.550;7.208;2023-04-01T03:56:19;98573.40;;;8.70
70831;BMP180;58451;51.550;7.208;2023-04-01T03:57:51;98573.40;;;8.72
70831;BMP180;58451;51.550;7.208;2023-04-01T03:59:23;98574.60;;;8.76
70831;BMP180;58451;51.550;7.208;2023-04-01T04:00:54;98573.40;;;8.76
70831;BMP180;58451;51.550;7.208;2023-04-01T04:02:26;98580.20;;;8.80
70831;BMP180;58451;51.550;7.208;2023-04-01T04:03:59;98577.80;;;8.78
70831;BMP180;58451;51.550;7.208;2023-04-01T04:05:32;98576.60;;;8.80
70831;BMP180;58451;51.550;7.208;2023-04-01T04:07:05;98575.20;;;8.80
70831;BMP180;58451;51.550;7.208;2023-04-01T04:08:49;98576.00;;;8.80
70831;BMP180;58451;51.550;7.208;2023-04-01T04:10:21;98571.20;;;8.80
70831;BMP180;58451;51.550;7.208;2023-04-01T04:11:54;98574.60;;;8.80
70831;BMP180;58451;51.550;7.208;2023-04-01T04:13:26;98578.60;;;8.80
70831;BMP180;58451;51.550;7.208;2023-04-01T04:15:04;98574.80;;;8.80
70831;BMP180;58451;51.550;7.208;2023-04-01T04:16:36;98574.80;;;8.80
70831;BMP180;58451;51.550;7.208;2023-04-01T04:18:09;98579.80;;;8.80
70831;BMP180;58451;51.550;7.208;2023-04-01T04:19:40;98580.00;;;8.80
70831;BMP180;58451;51.550;7.208;2023-04-01T04:21:14;98581.00;;;8.84
70831;BMP180;58451;51.550;7.208;2023-04-01T04:22:46;98586.80;;;8.82
70831;BMP180;58451;51.550;7.208;2023-04-01T04:24:18;98586.00;;;8.90
70831;BMP180;58451;51.550;7.208;2023-04-01T04:26:09;98587.80;;;8.90
70831;BMP180;58451;51.550;7.208;2023-04-01T04:27:41;98586.20;;;8.90
70831;BMP180;58451;51.550;7.208;2023-04-01T04:29:15;98588.00;;;8.90
70831;BMP180;58451;51.550;7.208;2023-04-01T04:30:47;98589.20;;;8.90
70831;BMP180;58451;51.550;7.208;2023-04-01T04:32:19;98587.60;;;8.90
70831;BMP180;58451;51.550;7.208;2023-04-01T04:33:52;98589.80;;;8.90
70831;BMP180;58451;51.550;7.208;2023-04-01T04:35:24;98594.20;;;8.90
70831;BMP180;58451;51.550;7.208;2023-04-01T04:36:56;98590.40;;;8.90
70831;BMP180;58451;51.550;7.208;2023-04-01T04:38:30;98592.20;;;8.90
70831;BMP180;58451;51.550;7.208;2023-04-01T04:40:02;98591.40;;;8.90
70831;BMP180;58451;51.550;7.208;2023-04-01T04:41:37;98592.00;;;8.90
70831;BMP180;58451;51.550;7.208;2023-04-01T04:43:12;98596.20;;;8.90
70831;BMP180;58451;51.550;7.208;2023-04-01T04:44:44;98594.80;;;8.90
70831;BMP180;58451;51.550;7.208;2023-04-01T04:46:16;98592.60;;;8.90
70831;BMP180;58451;51.550;7.208;2023-04-01T04:47:50;98596.60;;;8.90
70831;BMP180;58451;51.550;7.208;2023-04-01T04:49:22;98600.60;;;8.90
70831;BMP180;58451;51.550;7.208;2023-04-01T04:50:54;98596.20;;;8.90
70831;BMP180;58451;51.550;7.208;2023-04-01T04:52:27;98595.40;;;8.90
70831;BMP180;58451;51.550;7.208;2023-04-01T04:54:00;98601.60;;;8.90
70831;BMP180;58451;51.550;7.208;2023-04-01T04:55:48;98604.40;;;8.90
70831;BMP180;58451;51.550;7.208;2023-04-01T04:57:38;98600.40;;;8.90
70831;BMP180;58451;51.550;7.208;2023-04-01T04:59:10;98604.20;;;8.90
70831;BMP180;58451;51.550;7.208;2023-04-01T05:00:53;98606.00;;;8.90
70831;BMP180;58451;51.550;7.208;2023-04-01T05:02:32;98604.20;;;8.90
70831;BMP180;58451;51.550;7.208;2023-04-01T05:04:05;98603.20;;;8.90
70831;BMP180;58451;51.550;7.208;2023-04-01T05:05:37;98602.60;;;8.90
70831;BMP180;58451;51.550;7.208;2023-04-01T05:07:10;98607.80;;;8.90
70831;BMP180;58451;51.550;7.208;2023-04-01T05:08:44;98609.20;;;8.90
70831;BMP180;58451;51.550;7.208;2023-04-01T05:10:16;98611.20;;;8.90
70831;BMP180;58451;51.550;7.208;2023-04-01T05:11:48;98606.60;;;8.90
70831;BMP180;58451;51.550;7.208;2023-04-01T05:13:20;98608.00;;;8.90
70831;BMP180;58451;51.550;7.208;2023-04-01T05:14:52;98607.40;;;8.90
70831;BMP180;58451;51.550;7.208;2023-04-01T05:16:24;98614.60;;;8.90
70831;BMP180;58451;51.550;7.208;2023-04-01T05:17:56;98611.20;;;8.90
70831;BMP180;58451;51.550;7.208;2023-04-01T05:19:28;98610.60;;;8.90
70831;BMP180;58451;51.550;7.208;2023-04-01T05:21:00;98612.60;;;8.92
70831;BMP180;58451;51.550;7.208;2023-04-01T05:22:33;98609.80;;;8.98
70831;BMP180;58451;51.550;7.208;2023-04-01T05:24:08;98619.00;;;9.00
70831;BMP180;58451;51.550;7.208;2023-04-01T05:25:42;98618.60;;;8.98
70831;BMP180;58451;51.550;7.208;2023-04-01T05:27:15;98616.40;;;9.00
70831;BMP180;58451;51.550;7.208;2023-04-01T05:28:47;98617.80;;;9.00
70831;BMP180;58451;51.550;7.208;2023-04-01T05:30:19;98614.80;;;9.00
70831;BMP180;58451;51.550;7.208;2023-04-01T05:32:03;98616.80;;;9.00
70831;BMP180;58451;51.550;7.208;2023-04-01T05:33:36;98618.60;;;9.00
70831;BMP180;58451;51.550;7.208;2023-04-01T05:35:09;98616.60;;;9.00
70831;BMP180;58451;51.550;7.208;2023-04-01T05:36:42;98622.80;;;9.00
70831;BMP180;58451;51.550;7.208;2023-04-01T05:38:14;98620.20;;;9.00
70831;BMP180;58451;51.550;7.208;2023-04-01T05:39:46;98621.00;;;9.00
70831;BMP180;58451;51.550;7.208;2023-04-01T05:41:18;98624.60;;;9.00
70831;BMP180;58451;51.550;7.208;2023-04-01T05:42:50;98627.20;;;9.00
70831;BMP180;58451;51.550;7.208;2023-04-01T05:44:22;98627.80;;;9.00
70831;BMP180;58451;51.550;7.208;2023-04-01T05:46:14;98627.00;;;9.00
70831;BMP180;58451;51.550;7.208;2023-04-01T05:47:54;98626.40;;;9.00
70831;BMP180;58451;51.550;7.208;2023-04-01T05:49:26;98630.80;;;9.00
70831;BMP180;58451;51.550;7.208;2023-04-01T05:51:00;98628.60;;;9.00
70831;BMP180;58451;51.550;7.208;2023-04-01T05:52:32;98625.80;;;9.10
70831;BMP180;58451;51.550;7.208;2023-04-01T05:54:05;98634.80;;;9.08
70831;BMP180;58451;51.550;7.208;2023-04-01T05:55:37;98638.60;;;9.10
70831;BMP180;58451;51.550;7.208;2023-04-01T05:57:09;98642.20;;;9.10
70831;BMP180;58451;51.550;7.208;2023-04-01T05:58:41;98637.80;;;9.10
70831;BMP180;58451;51.550;7.208;2023-04-01T06:00:15;98638.20;;;9.10
70831;BMP180;58451;51.550;7.208;2023-04-01T06:01:47;98639.60;;;9.10
70831;BMP180;58451;51.550;7.208;2023-04-01T06:03:19;98637.60;;;9.10
70831;BMP180;58451;51.550;7.208;2023-04-01T06:05:24;98637.20;;;9.14
70831;BMP180;58451;51.550;7.208;2023-04-01T06:06:55;98640.60;;;9.12
70831;BMP180;58451;51.550;7.208;2023-04-01T06:08:30;98638.40;;;9.20
70831;BMP180;58451;51.550;7.208;2023-04-01T06:10:12;98639.60;;;9.20
70831;BMP180;58451;51.550;7.208;2023-04-01T06:14:34;98642.60;;;9.20
70831;BMP180;58451;51.550;7.208;2023-04-01T06:16:36;98641.40;;;9.22
70831;BMP180;58451;51.550;7.208;2023-04-01T06:34:20;98655.80;;;9.30
70831;BMP180;58451;51.550;7.208;2023-04-01T06:38:34;98661.20;;;9.30
70831;BMP180;58451;51.550;7.208;2023-04-01T06:43:03;98661.20;;;9.30
70831;BMP180;58451;51.550;7.208;2023-04-01T06:47:28;98662.00;;;9.30
70831;BMP180;58451;51.550;7.208;2023-04-01T06:52:05;98666.40;;;9.30
70831;BMP180;58451;51.550;7.208;2023-04-01T06:56:14;98671.40;;;9.40
70831;BMP180;58451;51.550;7.208;2023-04-01T06:58:15;98671.60;;;9.40
70831;BMP180;58451;51.550;7.208;2023-04-01T06:59:48;98674.40;;;9.40
70831;BMP180;58451;51.550;7.208;2023-04-01T07:01:27;98665.80;;;9.40
70831;BMP180;58451;51.550;7.208;2023-04-01T07:04:53;98676.40;;;9.30
70831;BMP180;58451;51.550;7.208;2023-04-01T07:08:40;98672.40;;;9.30
70831;BMP180;58451;51.550;7.208;2023-04-01T07:10:21;98671.60;;;9.30
70831;BMP180;58451;51.550;7.208;2023-04-01T07:12:46;98679.40;;;9.30
70831;BMP180;58451;51.550;7.208;2023-04-01T07:14:41;98676.40;;;9.30
70831;BMP180;58451;51.550;7.208;2023-04-01T07:16:45;98680.80;;;9.30
70831;BMP180;58451;51.550;7.208;2023-04-01T07:18:54;98685.60;;;9.34
70831;BMP180;58451;51.550;7.208;2023-04-01T07:20:35;98687.40;;;9.30
70831;BMP180;58451;51.550;7.208;2023-04-01T07:22:35;98683.60;;;9.30
70831;BMP180;58451;51.550;7.208;2023-04-01T07:24:39;98688.60;;;9.40
70831;BMP180;58451;51.550;7.208;2023-04-01T07:26:23;98690.00;;;9.46
70831;BMP180;58451;51.550;7.208;2023-04-01T07:28:03;98692.60;;;9.50
70831;BMP180;58451;51.550;7.208;2023-04-01T07:29:39;98694.20;;;9.50
70831;BMP180;58451;51.550;7.208;2023-04-01T07:31:54;98695.00;;;9.50
70831;BMP180;58451;51.550;7.208;2023-04-01T07:34:11;98697.00;;;9.56
70831;BMP180;58451;51.550;7.208;2023-04-01T07:40:20;98698.60;;;9.58
70831;BMP180;58451;51.550;7.208;2023-04-01T07:50:27;98706.80;;;9.70
70831;BMP180;58451;51.550;7.208;2023-04-01T07:52:32;98707.40;;;9.70
70831;BMP180;58451;51.550;7.208;2023-04-01T07:55:11;98714.40;;;9.70
70831;BMP180;58451;51.550;7.208;2023-04-01T07:56:40;98714.20;;;9.70
70831;BMP180;58451;51.550;7.208;2023-04-01T08:03:49;98716.40;;;9.80
70831;BMP180;58451;51.550;7.208;2023-04-01T08:05:29;98720.40;;;9.80
70831;BMP180;58451;51.550;7.208;2023-04-01T08:07:25;98727.40;;;9.80
70831;BMP180;58451;51.550;7.208;2023-04-01T08:15:18;98730.00;;;9.80
70831;BMP180;58451;51.550;7.208;2023-04-01T08:17:45;98733.00;;;9.80
70831;BMP180;58451;51.550;7.208;2023-04-01T08:20:03;98732.20;;;9.80
70831;BMP180;58451;51.550;7.208;2023-04-01T08:21:49;98735.40;;;9.80
70831;BMP180;58451;51.550;7.208;2023-04-01T08:23:30;98737.00;;;9.80
70831;BMP180;58451;51.550;7.208;2023-04-01T08:25:17;98735.40;;;9.82
70831;BMP180;58451;51.550;7.208;2023-04-01T08:26:57;98743.20;;;9.90
70831;BMP180;58451;51.550;7.208;2023-04-01T08:29:02;98740.00;;;9.90
70831;BMP180;58451;51.550;7.208;2023-04-01T08:31:01;98744.80;;;9.90
70831;BMP180;58451;51.550;7.208;2023-04-01T08:32:39;98741.40;;;9.90
70831;BMP180;58451;51.550;7.208;2023-04-01T08:34:36;98750.00;;;9.90
70831;BMP180;58451;51.550;7.208;2023-04-01T08:37:52;98743.60;;;9.90
70831;BMP180;58451;51.550;7.208;2023-04-01T08:39:34;98747.80;;;9.90
70831;BMP180;58451;51.550;7.208;2023-04-01T08:55:31;98767.40;;;9.90
70831;BMP180;58451;51.550;7.208;2023-04-01T09:00:31;98766.60;;;9.90
70831;BMP180;58451;51.550;7.208;2023-04-01T09:05:36;98775.00;;;9.80
70831;BMP180;58451;51.550;7.208;2023-04-01T09:09:44;98788.20;;;9.80
70831;BMP180;58451;51.550;7.208;2023-04-01T09:14:23;98787.00;;;9.80
70831;BMP180;58451;51.550;7.208;2023-04-01T09:28:52;98799.20;;;9.88
70831;BMP180;58451;51.550;7.208;2023-04-01T09:31:00;98805.60;;;9.88
70831;BMP180;58451;51.550;7.208;2023-04-01T09:37:21;98812.40;;;9.90
70831;BMP180;58451;51.550;7.208;2023-04-01T09:39:37;98814.80;;;9.90
70831;BMP180;58451;51.550;7.208;2023-04-01T09:42:14;98818.80;;;9.98
70831;BMP180;58451;51.550;7.208;2023-04-01T09:44:34;98818.20;;;10.10
70831;BMP180;58451;51.550;7.208;2023-04-01T09:51:26;98823.80;;;10.10
70831;BMP180;58451;51.550;7.208;2023-04-01T09:55:30;98829.40;;;10.20
70831;BMP180;58451;51.550;7.208;2023-04-01T10:27:52;98855.80;;;10.60
70831;BMP180;58451;51.550;7.208;2023-04-01T10:40:36;98873.20;;;10.70
70831;BMP180;58451;51.550;7.208;2023-04-01T10:53:43;98870.80;;;10.70
70831;BMP180;58451;51.550;7.208;2023-04-01T11:08:43;98881.40;;;10.70
70831;BMP180;58451;51.550;7.208;2023-04-01T11:22:23;98895.60;;;10.70
70831;BMP180;58451;51.550;7.208;2023-04-01T11:24:24;98901.40;;;10.70
70831;BMP180;58451;51.550;7.208;2023-04-01T11:32:54;98911.40;;;10.70
70831;BMP180;58451;51.550;7.208;2023-04-01T11:38:45;98912.00;;;10.70
70831;BMP180;58451;51.550;7.208;2023-04-01T11:41:33;98914.80;;;10.70
70831;BMP180;58451;51.550;7.208;2023-04-01T11:44:32;98920.60;;;10.60
70831;BMP180;58451;51.550;7.208;2023-04-01T11:46:28;98921.20;;;10.60
70831;BMP180;58451;51.550;7.208;2023-04-01T11:48:43;98925.80;;;10.60
70831;BMP180;58451;51.550;7.208;2023-04-01T12:02:30;98945.40;;;10.70
70831;BMP180;58451;51.550;7.208;2023-04-01T12:15:50;98957.80;;;10.86
70831;BMP180;58451;51.550;7.208;2023-04-01T12:17:56;98960.20;;;10.90
70831;BMP180;58451;51.550;7.208;2023-04-01T12:33:48;98975.00;;;10.60
70831;BMP180;58451;51.550;7.208;2023-04-01T12:36:13;98985.00;;;10.50
70831;BMP180;58451;51.550;7.208;2023-04-01T13:04:44;99017.60;;;10.60
70831;BMP180;58451;51.550;7.208;2023-04-01T13:10:55;99032.60;;;10.54
70831;BMP180;58451;51.550;7.208;2023-04-01T13:15:10;99033.00;;;10.50
70831;BMP180;58451;51.550;7.208;2023-04-01T13:17:41;99037.00;;;10.40
70831;BMP180;58451;51.550;7.208;2023-04-01T13:19:31;99043.00;;;10.40
70831;BMP180;58451;51.550;7.208;2023-04-01T13:21:26;99042.20;;;10.40
70831;BMP180;58451;51.550;7.208;2023-04-01T13:25:58;99045.20;;;10.50
70831;BMP180;58451;51.550;7.208;2023-04-01T13:33:17;99051.60;;;10.80
70831;BMP180;58451;51.550;7.208;2023-04-01T13:35:10;99051.80;;;10.80
70831;BMP180;58451;51.550;7.208;2023-04-01T13:42:51;99063.00;;;10.88
70831;BMP180;58451;51.550;7.208;2023-04-01T13:44:39;99065.60;;;10.90
70831;BMP180;58451;51.550;7.208;2023-04-01T13:46:33;99062.80;;;10.90
70831;BMP180;58451;51.550;7.208;2023-04-01T13:48:32;99067.00;;;10.90
70831;BMP180;58451;51.550;7.208;2023-04-01T13:56:57;99079.20;;;10.54
70831;BMP180;58451;51.550;7.208;2023-04-01T14:04:34;99084.00;;;10.52
70831;BMP180;58451;51.550;7.208;2023-04-01T14:08:25;99084.60;;;10.50
70831;BMP180;58451;51.550;7.208;2023-04-01T14:16:11;99096.80;;;10.40
70831;BMP180;58451;51.550;7.208;2023-04-01T14:18:01;99099.00;;;10.40
70831;BMP180;58451;51.550;7.208;2023-04-01T14:24:21;99112.40;;;10.40
70831;BMP180;58451;51.550;7.208;2023-04-01T14:28:51;99111.40;;;10.40
70831;BMP180;58451;51.550;7.208;2023-04-01T14:36:08;99124.80;;;10.50
70831;BMP180;58451;51.550;7.208;2023-04-01T14:42:15;99123.60;;;10.60
70831;BMP180;58451;51.550;7.208;2023-04-01T14:44:10;99124.00;;;10.60
70831;BMP180;58451;51.550;7.208;2023-04-01T14:46:06;99122.40;;;10.70
70831;BMP180;58451;51.550;7.208;2023-04-01T14:48:13;99127.80;;;10.70
70831;BMP180;58451;51.550;7.208;2023-04-01T14:49:53;99132.00;;;10.80
70831;BMP180;58451;51.550;7.208;2023-04-01T14:53:27;99131.00;;;10.90
70831;BMP180;58451;51.550;7.208;2023-04-01T14:55:20;99134.00;;;11.00
70831;BMP180;58451;51.550;7.208;2023-04-01T14:57:30;99133.20;;;11.02
70831;BMP180;58451;51.550;7.208;2023-04-01T14:59:17;99138.20;;;11.10
70831;BMP180;58451;51.550;7.208;2023-04-01T15:04:47;99143.40;;;11.00
70831;BMP180;58451;51.550;7.208;2023-04-01T15:10:43;99150.40;;;10.80
70831;BMP180;58451;51.550;7.208;2023-04-01T15:15:16;99154.20;;;10.80
70831;BMP180;58451;51.550;7.208;2023-04-01T15:17:40;99156.60;;;11.00
70831;BMP180;58451;51.550;7.208;2023-04-01T15:27:50;99173.80;;;11.00
70831;BMP180;58451;51.550;7.208;2023-04-01T15:43:33;99190.40;;;10.60
70831;BMP180;58451;51.550;7.208;2023-04-01T15:49:11;99198.20;;;10.50
70831;BMP180;58451;51.550;7.208;2023-04-01T15:53:30;99195.20;;;10.40
70831;BMP180;58451;51.550;7.208;2023-04-01T16:00:23;99204.20;;;10.40
70831;BMP180;58451;51.550;7.208;2023-04-01T16:08:44;99216.00;;;10.34
70831;BMP180;58451;51.550;7.208;2023-04-01T16:12:19;99215.40;;;10.40
70831;BMP180;58451;51.550;7.208;2023-04-01T16:14:39;99222.00;;;10.40
70831;BMP180;58451;51.550;7.208;2023-04-01T16:16:38;99220.60;;;10.40
70831;BMP180;58451;51.550;7.208;2023-04-01T16:19:41;99223.00;;;10.40
70831;BMP180;58451;51.550;7.208;2023-04-01T16:23:10;99229.00;;;10.40
70831;BMP180;58451;51.550;7.208;2023-04-01T16:26:39;99236.80;;;10.40
70831;BMP180;58451;51.550;7.208;2023-04-01T16:28:29;99241.40;;;10.40
70831;BMP180;58451;51.550;7.208;2023-04-01T16:35:55;99242.40;;;10.20
70831;BMP180;58451;51.550;7.208;2023-04-01T16:38:04;99239.80;;;10.10